createdAt,value
2023-03-19T00:00:29.174Z,11.70
2023-03-19T00:02:56.230Z,11.60
2023-03-19T00:05:23.023Z,11.60
2023-03-19T00:07:49.718Z,11.60
2023-03-19T00:10:16.450Z,11.60
2023-03-19T00:12:43.087Z,11.60
2023-03-19T00:15:14.153Z,11.60
2023-03-19T00:17:43.087Z,11.50
2023-03-19T00:20:11.681Z,11.60
2023-03-19T00:22:39.708Z,11.60
2023-03-19T00:25:08.109Z,11.60
2023-03-19T00:27:34.905Z,11.60
2023-03-19T00:30:02.626Z,11.60
2023-03-19T00:32:30.165Z,11.60
2023-03-19T00:34:57.333Z,11.60
2023-03-19T00:37:23.974Z,11.50
2023-03-19T00:39:50.602Z,11.50
2023-03-19T00:42:17.553Z,11.30
2023-03-19T00:44:44.210Z,11.20
2023-03-19T00:47:11.227Z,11.20
2023-03-19T00:49:37.849Z,11.10
2023-03-19T00:52:04.573Z,11.10
2023-03-19T00:54:32.267Z,11.10
2023-03-19T00:56:59.174Z,11.10
2023-03-19T00:59:26.175Z,11.10
2023-03-19T01:01:52.855Z,11.10
2023-03-19T01:04:20.255Z,11.20
2023-03-19T01:06:46.949Z,11.20
2023-03-19T01:09:13.531Z,11.20
2023-03-19T01:11:40.339Z,11.20
2023-03-19T01:14:07.361Z,11.20
2023-03-19T01:16:34.832Z,11.20
2023-03-19T01:19:02.300Z,11.20
2023-03-19T01:21:31.124Z,11.20
2023-03-19T01:23:58.429Z,11.20
2023-03-19T01:26:25.369Z,11.20
2023-03-19T01:28:52.407Z,11.20
2023-03-19T01:31:19.444Z,11.20
2023-03-19T01:33:46.479Z,11.20
2023-03-19T01:36:13.640Z,11.30
2023-03-19T01:38:40.626Z,11.30
2023-03-19T01:41:07.651Z,11.20
2023-03-19T01:43:34.281Z,11.20
2023-03-19T01:46:31.223Z,11.10
2023-03-19T01:49:01.470Z,11.10
2023-03-19T01:51:32.408Z,11.10
2023-03-19T01:54:02.536Z,11.10
2023-03-19T01:56:34.703Z,11.10
2023-03-19T01:59:09.538Z,11.00
2023-03-19T02:01:42.753Z,11.00
2023-03-19T02:04:09.822Z,11.00
2023-03-19T02:06:37.723Z,11.00
2023-03-19T02:09:04.675Z,10.90
2023-03-19T02:11:32.248Z,10.90
2023-03-19T02:13:59.002Z,11.00
2023-03-19T02:16:27.045Z,11.00
2023-03-19T02:18:54.182Z,10.90
2023-03-19T02:21:21.808Z,10.80
2023-03-19T02:24:12.469Z,10.80
2023-03-19T02:26:40.324Z,10.80
2023-03-19T02:29:07.470Z,10.80
2023-03-19T02:31:34.138Z,10.80
2023-03-19T02:34:04.356Z,10.80
2023-03-19T02:36:37.902Z,10.80
2023-03-19T02:39:07.241Z,10.90
2023-03-19T02:41:35.551Z,10.90
2023-03-19T02:44:04.396Z,10.90
2023-03-19T02:46:31.701Z,10.90
2023-03-19T02:48:59.018Z,10.90
2023-03-19T02:51:25.782Z,10.90
2023-03-19T02:53:52.347Z,10.90
2023-03-19T02:56:19.032Z,10.90
2023-03-19T02:58:45.777Z,10.90
2023-03-19T03:01:12.463Z,10.80
2023-03-19T03:03:39.153Z,10.80
2023-03-19T03:06:06.080Z,10.70
2023-03-19T03:08:33.452Z,10.60
2023-03-19T03:11:00.057Z,10.60
2023-03-19T03:13:27.780Z,10.50
2023-03-19T03:15:54.497Z,10.40
2023-03-19T03:18:21.160Z,10.40
2023-03-19T03:20:48.099Z,10.40
2023-03-19T03:23:14.829Z,10.40
2023-03-19T03:25:41.592Z,10.40
2023-03-19T03:28:08.814Z,10.30
2023-03-19T03:30:36.180Z,10.20
2023-03-19T03:33:02.869Z,10.20
2023-03-19T03:35:29.568Z,10.20
2023-03-19T03:37:56.296Z,10.10
2023-03-19T03:40:22.859Z,10.10
2023-03-19T03:42:49.468Z,10.10
2023-03-19T03:45:16.077Z,10.10
2023-03-19T03:47:42.751Z,10.00
2023-03-19T03:50:10.946Z,10.00
2023-03-19T03:52:38.378Z,10.10
2023-03-19T03:55:05.539Z,10.00
2023-03-19T03:57:32.278Z,10.00
2023-03-19T03:59:59.115Z,10.00
2023-03-19T04:02:26.094Z,10.00
2023-03-19T04:04:53.412Z,10.00
2023-03-19T04:07:20.608Z,9.90
2023-03-19T04:09:47.417Z,9.90
2023-03-19T04:12:14.688Z,9.90
2023-03-19T04:14:41.513Z,9.90
2023-03-19T04:17:08.151Z,9.90
2023-03-19T04:19:34.766Z,9.90
2023-03-19T04:22:03.329Z,9.80
2023-03-19T04:24:30.216Z,9.70
2023-03-19T04:26:56.783Z,9.70
2023-03-19T04:29:23.600Z,9.60
2023-03-19T04:31:51.053Z,9.60
2023-03-19T04:34:17.715Z,9.40
2023-03-19T04:36:44.427Z,9.40
2023-03-19T04:39:11.029Z,9.30
2023-03-19T04:41:38.574Z,9.30
2023-03-19T04:44:05.866Z,9.20
2023-03-19T04:46:32.581Z,9.20
2023-03-19T04:48:59.823Z,9.10
2023-03-19T04:51:26.451Z,9.10
2023-03-19T04:53:53.132Z,9.00
2023-03-19T04:56:19.897Z,9.00
2023-03-19T04:58:46.660Z,8.90
2023-03-19T05:01:13.576Z,8.90
2023-03-19T05:03:40.580Z,8.90
2023-03-19T05:06:07.762Z,8.90
2023-03-19T05:08:34.366Z,8.90
2023-03-19T05:11:01.063Z,8.90
2023-03-19T05:13:27.697Z,8.80
2023-03-19T05:15:55.557Z,8.80
2023-03-19T05:18:22.548Z,8.80
2023-03-19T05:20:49.620Z,8.80
2023-03-19T05:23:17.847Z,8.80
2023-03-19T05:25:44.576Z,8.80
2023-03-19T05:28:11.515Z,8.80
2023-03-19T05:30:38.317Z,8.70
2023-03-19T05:33:05.054Z,8.70
2023-03-19T05:35:31.852Z,8.60
2023-03-19T05:37:58.756Z,8.60
2023-03-19T05:40:25.902Z,8.60
2023-03-19T05:42:52.559Z,8.60
2023-03-19T05:45:19.530Z,8.70
2023-03-19T05:47:50.081Z,8.70
2023-03-19T05:50:18.421Z,8.70
2023-03-19T05:52:45.576Z,8.60
2023-03-19T05:55:12.519Z,8.60
2023-03-19T05:57:39.255Z,8.60
2023-03-19T06:00:07.596Z,8.50
2023-03-19T06:02:35.774Z,8.50
2023-03-19T06:05:02.612Z,8.60
2023-03-19T06:07:29.510Z,8.60
2023-03-19T06:09:56.336Z,8.60
2023-03-19T06:12:23.747Z,8.60
2023-03-19T06:14:50.467Z,8.70
2023-03-19T06:17:17.211Z,8.70
2023-03-19T06:19:43.927Z,8.70
2023-03-19T06:22:10.855Z,8.80
2023-03-19T06:24:37.524Z,8.90
2023-03-19T06:27:04.308Z,9.00
2023-03-19T06:29:30.874Z,9.10
2023-03-19T06:31:58.244Z,9.10
2023-03-19T06:34:25.425Z,9.20
2023-03-19T06:36:53.703Z,9.20
2023-03-19T06:39:21.636Z,9.20
2023-03-19T06:41:48.279Z,9.30
2023-03-19T06:44:15.015Z,9.40
2023-03-19T06:46:41.767Z,9.50
2023-03-19T06:49:08.451Z,9.60
2023-03-19T06:51:35.100Z,9.80
2023-03-19T06:54:01.762Z,9.80
2023-03-19T06:56:29.456Z,9.80
2023-03-19T06:58:56.464Z,9.70
2023-03-19T07:01:23.267Z,9.80
2023-03-19T07:03:50.196Z,9.90
2023-03-19T07:06:16.906Z,10.20
2023-03-19T07:08:46.358Z,10.30
2023-03-19T07:11:14.407Z,10.50
2023-03-19T07:13:41.231Z,10.60
2023-03-19T07:16:08.664Z,10.90
2023-03-19T07:18:36.002Z,11.20
2023-03-19T07:21:02.637Z,11.70
2023-03-19T07:23:29.221Z,11.90
2023-03-19T07:25:55.968Z,12.10
2023-03-19T07:28:23.149Z,12.20
2023-03-19T07:30:53.072Z,12.10
2023-03-19T07:33:21.115Z,12.10
2023-03-19T07:35:47.878Z,12.00
2023-03-19T07:38:14.981Z,11.90
2023-03-19T07:40:45.590Z,11.80
2023-03-19T07:43:18.193Z,11.60
2023-03-19T07:45:45.001Z,11.50
2023-03-19T07:48:12.625Z,11.50
2023-03-19T07:50:39.336Z,11.50
2023-03-19T07:53:06.288Z,11.50
2023-03-19T07:55:32.946Z,11.40
2023-03-19T07:58:00.005Z,11.40
2023-03-19T08:00:27.297Z,11.50
2023-03-19T08:02:53.955Z,11.60
2023-03-19T08:05:20.602Z,11.70
2023-03-19T08:07:49.481Z,11.80
2023-03-19T08:10:16.294Z,11.90
2023-03-19T08:12:42.970Z,12.00
2023-03-19T08:15:11.360Z,12.10
2023-03-19T08:17:38.497Z,12.00
2023-03-19T08:20:08.194Z,12.00
2023-03-19T08:22:38.568Z,12.20
2023-03-19T08:25:06.960Z,12.20
2023-03-19T08:27:36.117Z,12.40
2023-03-19T08:30:05.152Z,12.40
2023-03-19T08:32:31.996Z,12.20
2023-03-19T08:34:58.693Z,12.10
2023-03-19T08:37:25.281Z,12.20
2023-03-19T08:39:54.683Z,12.40
2023-03-19T08:42:22.701Z,12.50
2023-03-19T08:44:50.172Z,12.40
2023-03-19T08:47:16.907Z,12.40
2023-03-19T08:49:43.523Z,12.40
2023-03-19T08:52:10.272Z,12.70
2023-03-19T08:54:36.923Z,13.10
2023-03-19T08:57:03.954Z,13.40
2023-03-19T08:59:33.768Z,13.60
2023-03-19T09:02:01.535Z,14.00
2023-03-19T09:04:28.676Z,14.30
2023-03-19T09:06:55.837Z,14.30
2023-03-19T09:09:24.762Z,14.70
2023-03-19T09:11:51.632Z,14.80
2023-03-19T09:14:20.046Z,15.00
2023-03-19T09:16:47.026Z,15.20
2023-03-19T09:19:13.718Z,15.20
2023-03-19T09:21:40.505Z,15.30
2023-03-19T09:24:07.368Z,15.30
2023-03-19T09:26:34.084Z,15.30
2023-03-19T09:29:02.173Z,15.40
2023-03-19T09:31:29.904Z,15.50
2023-03-19T09:33:56.747Z,15.50
2023-03-19T09:36:23.446Z,15.70
2023-03-19T09:38:50.072Z,15.80
2023-03-19T09:41:31.439Z,15.70
2023-03-19T09:44:02.218Z,15.70
2023-03-19T09:46:38.109Z,15.70
2023-03-19T09:49:19.385Z,15.60
2023-03-19T09:52:24.625Z,15.70
2023-03-19T09:54:52.777Z,15.60
2023-03-19T09:57:20.229Z,15.70
2023-03-19T09:59:48.248Z,15.80
2023-03-19T10:02:35.340Z,15.80
2023-03-19T10:05:08.231Z,15.70
2023-03-19T10:07:42.455Z,15.50
2023-03-19T10:10:31.082Z,15.40
2023-03-19T10:13:35.316Z,15.50
2023-03-19T10:16:03.687Z,15.60
2023-03-19T10:18:36.026Z,15.50
2023-03-19T10:21:32.201Z,15.50
2023-03-19T10:24:11.345Z,15.60
2023-03-19T10:26:37.988Z,15.40
2023-03-19T10:29:10.658Z,15.40
2023-03-19T10:31:56.167Z,15.30
2023-03-19T10:34:31.509Z,15.30
2023-03-19T10:37:00.528Z,15.20
2023-03-19T10:39:28.300Z,15.30
2023-03-19T10:42:21.409Z,15.20
2023-03-19T10:44:54.033Z,15.00
2023-03-19T10:47:26.240Z,15.00
2023-03-19T10:49:53.500Z,14.80
2023-03-19T10:52:29.306Z,14.50
2023-03-19T10:55:21.484Z,14.60
2023-03-19T10:57:50.997Z,14.60
2023-03-19T11:00:25.033Z,14.40
2023-03-19T11:02:54.243Z,14.30
2023-03-19T11:05:31.803Z,14.10
2023-03-19T11:08:07.335Z,14.10
2023-03-19T11:10:36.042Z,13.90
2023-03-19T11:13:15.982Z,13.70
2023-03-19T11:15:42.976Z,13.60
2023-03-19T11:18:39.555Z,13.40
2023-03-19T11:21:21.259Z,13.00
2023-03-19T11:24:00.096Z,12.70
2023-03-19T11:26:28.633Z,12.60
2023-03-19T11:29:02.830Z,12.50
2023-03-19T11:31:41.200Z,12.70
2023-03-19T11:34:28.922Z,12.80
2023-03-19T11:37:22.635Z,13.10
2023-03-19T11:40:14.607Z,13.60
2023-03-19T11:43:08.229Z,14.10
2023-03-19T11:45:42.697Z,14.60
2023-03-19T11:48:33.944Z,14.60
2023-03-19T11:51:25.540Z,14.40
2023-03-19T11:54:10.850Z,14.30
2023-03-19T11:56:37.423Z,14.30
2023-03-19T11:59:06.847Z,14.30
2023-03-19T12:01:58.951Z,14.50
2023-03-19T12:04:53.725Z,14.60
2023-03-19T12:07:52.429Z,14.70
2023-03-19T12:10:47.811Z,14.90
2023-03-19T12:13:24.020Z,14.90
2023-03-19T12:16:01.284Z,15.10
2023-03-19T12:18:43.071Z,15.10
2023-03-19T12:21:23.644Z,15.40
2023-03-19T12:24:48.354Z,16.10
2023-03-19T12:27:34.648Z,16.80
2023-03-19T12:30:24.274Z,17.00
2023-03-19T12:33:09.630Z,16.50
2023-03-19T12:35:39.013Z,15.80
2023-03-19T12:38:20.383Z,15.50
2023-03-19T12:41:03.885Z,15.10
2023-03-19T12:43:53.278Z,14.80
2023-03-19T12:46:51.134Z,14.80
2023-03-19T12:49:39.485Z,14.80
2023-03-19T12:52:33.698Z,15.00
2023-03-19T12:55:04.513Z,15.10
2023-03-19T12:57:54.215Z,15.00
2023-03-19T13:00:47.536Z,15.00
2023-03-19T13:03:21.152Z,14.80
2023-03-19T13:06:08.525Z,14.80
2023-03-19T13:08:37.917Z,14.60
2023-03-19T13:11:20.010Z,14.50
2023-03-19T13:14:15.596Z,14.30
2023-03-19T13:17:02.128Z,14.20
2023-03-19T13:19:54.250Z,14.00
2023-03-19T13:22:24.412Z,13.70
2023-03-19T13:24:52.376Z,13.60
2023-03-19T13:27:27.096Z,13.40
2023-03-19T13:30:12.202Z,13.20
2023-03-19T13:32:42.039Z,12.90
2023-03-19T13:35:15.824Z,12.70
2023-03-19T13:37:43.813Z,12.50
2023-03-19T13:40:42.180Z,12.50
2023-03-19T13:43:30.476Z,12.50
2023-03-19T13:46:06.200Z,12.40
2023-03-19T13:48:33.137Z,12.50
2023-03-19T13:51:01.820Z,12.60
2023-03-19T13:53:34.705Z,12.70
2023-03-19T13:56:12.758Z,12.80
2023-03-19T13:58:54.051Z,12.80
2023-03-19T14:01:37.432Z,12.70
2023-03-19T14:04:06.241Z,12.70
2023-03-19T14:06:39.765Z,12.80
2023-03-19T14:09:30.379Z,12.80
2023-03-19T14:12:10.995Z,12.90
2023-03-19T14:14:43.900Z,13.00
2023-03-19T14:17:15.845Z,13.10
2023-03-19T14:19:43.346Z,12.90
2023-03-19T14:22:33.328Z,12.90
2023-03-19T14:25:21.283Z,12.80
2023-03-19T14:28:03.415Z,12.90
2023-03-19T14:30:40.680Z,12.90
2023-03-19T14:33:20.041Z,13.00
2023-03-19T14:35:49.660Z,13.10
2023-03-19T14:38:38.289Z,13.10
2023-03-19T14:41:06.340Z,13.20
2023-03-19T14:43:52.844Z,13.20
2023-03-19T14:46:26.533Z,13.20
2023-03-19T14:49:31.012Z,13.30
2023-03-19T14:52:00.479Z,13.20
2023-03-19T14:54:53.176Z,13.20
2023-03-19T14:57:32.885Z,13.30
2023-03-19T14:59:59.976Z,13.30
2023-03-19T15:02:43.524Z,13.20
2023-03-19T15:05:24.296Z,13.30
2023-03-19T15:07:55.715Z,13.30
2023-03-19T15:10:26.824Z,13.30
2023-03-19T15:13:11.648Z,13.30
2023-03-19T15:16:00.529Z,13.40
2023-03-19T15:18:27.833Z,13.50
2023-03-19T15:20:56.161Z,13.50
2023-03-19T15:23:28.389Z,13.60
2023-03-19T15:26:03.956Z,13.70
2023-03-19T15:28:38.110Z,13.70
2023-03-19T15:31:26.627Z,13.70
2023-03-19T15:33:53.657Z,13.80
2023-03-19T15:36:33.183Z,13.70
2023-03-19T15:39:05.126Z,13.80
2023-03-19T15:41:35.102Z,13.70
2023-03-19T15:44:07.074Z,13.60
2023-03-19T15:46:37.662Z,13.60
2023-03-19T15:49:16.677Z,13.60
2023-03-19T15:51:45.906Z,13.70
2023-03-19T15:54:12.667Z,13.60
2023-03-19T15:56:39.531Z,13.50
2023-03-19T15:59:06.331Z,13.50
2023-03-19T16:01:33.789Z,13.50
2023-03-19T16:04:04.120Z,13.40
2023-03-19T16:06:35.974Z,13.40
2023-03-19T16:09:27.102Z,13.30
2023-03-19T16:11:56.108Z,13.20
2023-03-19T16:14:26.388Z,13.20
2023-03-19T16:17:03.704Z,13.10
2023-03-19T16:19:34.708Z,13.00
2023-03-19T16:22:16.494Z,12.90
2023-03-19T16:24:45.917Z,12.90
2023-03-19T16:27:20.528Z,12.90
2023-03-19T16:29:55.695Z,12.80
2023-03-19T16:32:24.622Z,12.80
2023-03-19T16:34:52.425Z,12.70
2023-03-19T16:37:37.733Z,12.70
2023-03-19T16:40:24.322Z,12.70
2023-03-19T16:42:56.086Z,12.70
2023-03-19T16:45:30.718Z,12.60
2023-03-19T16:47:59.496Z,12.60
2023-03-19T16:50:35.302Z,12.60
2023-03-19T16:53:05.499Z,12.60
2023-03-19T16:55:36.689Z,12.60
2023-03-19T16:58:13.496Z,12.50
2023-03-19T17:00:43.117Z,12.50
2023-03-19T17:03:12.486Z,12.40
2023-03-19T17:05:39.105Z,12.40
2023-03-19T17:08:05.782Z,12.30
2023-03-19T17:10:33.371Z,12.30
2023-03-19T17:13:01.431Z,12.20
2023-03-19T17:15:37.802Z,12.20
2023-03-19T17:18:19.061Z,12.10
2023-03-19T17:21:08.995Z,12.10
2023-03-19T17:23:36.035Z,12.00
2023-03-19T17:26:09.478Z,11.90
2023-03-19T17:28:37.152Z,11.90
2023-03-19T17:31:03.966Z,11.80
2023-03-19T17:33:31.139Z,11.70
2023-03-19T17:35:58.984Z,11.70
2023-03-19T17:38:32.404Z,11.70
2023-03-19T17:40:59.058Z,11.70
2023-03-19T17:43:25.791Z,11.70
2023-03-19T17:45:53.953Z,11.70
2023-03-19T17:48:26.142Z,11.70
2023-03-19T17:50:58.383Z,11.70
2023-03-19T17:53:25.436Z,11.70
2023-03-19T17:55:52.088Z,11.70
2023-03-19T17:58:21.272Z,11.70
2023-03-19T18:00:49.259Z,11.60
2023-03-19T18:03:18.767Z,11.60
2023-03-19T18:05:45.706Z,11.60
2023-03-19T18:08:17.312Z,11.60
2023-03-19T18:10:44.166Z,11.50
2023-03-19T18:13:10.884Z,11.50
2023-03-19T18:15:40.155Z,11.40
2023-03-19T18:18:13.557Z,11.30
2023-03-19T18:20:41.103Z,11.20
2023-03-19T18:23:07.781Z,11.20
2023-03-19T18:25:35.669Z,11.10
2023-03-19T18:28:03.681Z,11.00
2023-03-19T18:30:33.165Z,10.90
2023-03-19T18:33:01.367Z,10.80
2023-03-19T18:35:34.348Z,10.70
2023-03-19T18:38:01.035Z,10.70
2023-03-19T18:40:29.822Z,10.60
2023-03-19T18:42:56.748Z,10.50
2023-03-19T18:45:26.881Z,10.50
2023-03-19T18:47:54.709Z,10.50
2023-03-19T18:50:23.126Z,10.40
2023-03-19T18:52:51.652Z,10.40
2023-03-19T18:55:19.719Z,10.30
2023-03-19T18:58:00.410Z,10.30
2023-03-19T19:00:33.553Z,10.20
2023-03-19T19:03:01.570Z,10.10
2023-03-19T19:05:32.968Z,10.00
2023-03-19T19:08:01.768Z,10.00
2023-03-19T19:10:33.162Z,10.00
2023-03-19T19:13:01.303Z,10.00
2023-03-19T19:15:35.650Z,9.90
2023-03-19T19:18:26.566Z,9.90
2023-03-19T19:20:54.239Z,9.80
2023-03-19T19:23:22.185Z,9.80
2023-03-19T19:25:55.030Z,9.80
2023-03-19T19:28:27.993Z,9.70
2023-03-19T19:30:57.241Z,9.70
2023-03-19T19:33:27.985Z,9.70
2023-03-19T19:35:55.401Z,9.70
2023-03-19T19:38:22.186Z,9.70
2023-03-19T19:40:52.586Z,9.70
2023-03-19T19:43:22.603Z,9.70
2023-03-19T19:45:52.704Z,9.70
2023-03-19T19:48:28.100Z,9.80
2023-03-19T19:50:55.800Z,9.80
2023-03-19T19:53:25.234Z,9.80
2023-03-19T19:55:53.465Z,9.90
2023-03-19T19:58:25.511Z,10.00
2023-03-19T20:01:02.852Z,10.00
2023-03-19T20:03:32.778Z,9.90
2023-03-19T20:06:01.449Z,10.00
2023-03-19T20:08:28.816Z,9.90
2023-03-19T20:10:56.471Z,9.90
2023-03-19T20:13:37.805Z,9.90
2023-03-19T20:16:05.606Z,9.90
2023-03-19T20:18:35.502Z,9.80
2023-03-19T20:21:04.002Z,9.70
2023-03-19T20:23:31.423Z,9.70
2023-03-19T20:25:58.273Z,9.60
2023-03-19T20:28:32.502Z,9.60
2023-03-19T20:30:59.164Z,9.60
2023-03-19T20:33:26.052Z,9.60
2023-03-19T20:35:53.597Z,9.60
2023-03-19T20:38:20.353Z,9.70
2023-03-19T20:40:51.102Z,9.70
2023-03-19T20:43:28.682Z,9.80
2023-03-19T20:45:57.588Z,9.80
2023-03-19T20:48:25.638Z,9.80
2023-03-19T20:50:52.343Z,9.80
2023-03-19T20:53:19.182Z,9.80
2023-03-19T20:55:47.498Z,9.80
2023-03-19T20:58:34.523Z,9.80
2023-03-19T21:01:01.271Z,9.90
2023-03-19T21:03:30.254Z,9.90
2023-03-19T21:06:06.044Z,10.00
2023-03-19T21:08:37.122Z,10.00
2023-03-19T21:11:03.999Z,10.00
2023-03-19T21:13:31.841Z,10.00
2023-03-19T21:15:58.691Z,10.00
2023-03-19T21:18:25.488Z,10.00
2023-03-19T21:20:57.754Z,10.10
2023-03-19T21:23:38.196Z,10.10
2023-03-19T21:26:19.200Z,10.10
2023-03-19T21:28:48.899Z,10.10
2023-03-19T21:31:20.793Z,10.20
2023-03-19T21:33:51.593Z,10.30
2023-03-19T21:36:18.548Z,10.30
2023-03-19T21:38:45.346Z,10.20
2023-03-19T21:41:23.670Z,10.20
2023-03-19T21:43:59.217Z,10.20
2023-03-19T21:46:28.366Z,10.10
2023-03-19T21:48:56.462Z,10.00
2023-03-19T21:51:25.190Z,10.00
2023-03-19T21:53:52.435Z,10.10
2023-03-19T21:56:24.910Z,10.00
2023-03-19T21:58:53.107Z,10.00
2023-03-19T22:01:23.759Z,10.10
2023-03-19T22:03:51.789Z,10.10
2023-03-19T22:06:19.155Z,10.10
2023-03-19T22:08:46.669Z,10.10
2023-03-19T22:11:22.457Z,10.10
2023-03-19T22:13:49.254Z,10.10
2023-03-19T22:16:23.106Z,10.10
2023-03-19T22:18:51.072Z,10.10
2023-03-19T22:21:19.956Z,10.10
2023-03-19T22:23:47.509Z,10.10
2023-03-19T22:29:25.605Z,10.10
2023-03-19T22:31:53.135Z,10.10
2023-03-19T22:34:23.054Z,10.10
2023-03-19T22:36:49.800Z,10.00
2023-03-19T22:39:16.927Z,10.00
2023-03-19T22:41:46.347Z,10.00
2023-03-19T22:44:30.264Z,10.00
2023-03-19T22:46:59.054Z,10.00
2023-03-19T22:49:27.952Z,10.00
2023-03-19T22:51:55.723Z,10.10
2023-03-19T22:54:22.441Z,10.10
2023-03-19T22:56:49.051Z,10.10
2023-03-19T22:59:15.965Z,10.10
2023-03-19T23:01:47.175Z,10.10
2023-03-19T23:04:26.211Z,10.10
2023-03-19T23:06:54.695Z,10.00
2023-03-19T23:09:29.396Z,10.00
2023-03-19T23:11:57.691Z,9.90
2023-03-19T23:14:31.873Z,9.90
2023-03-19T23:17:04.215Z,10.00
2023-03-19T23:19:33.374Z,9.90
2023-03-19T23:22:02.501Z,9.90
2023-03-19T23:24:30.557Z,9.90
2023-03-19T23:26:59.143Z,9.90
2023-03-19T23:29:32.337Z,9.90
2023-03-19T23:31:59.172Z,9.90
2023-03-19T23:34:26.876Z,9.90
2023-03-19T23:36:53.592Z,10.00
2023-03-19T23:39:21.016Z,9.90
2023-03-19T23:41:50.879Z,9.90
2023-03-19T23:44:19.338Z,9.90
2023-03-19T23:46:49.330Z,9.90
2023-03-19T23:49:24.900Z,10.00
2023-03-19T23:51:51.550Z,10.00
2023-03-19T23:54:33.014Z,10.00
2023-03-19T23:57:02.695Z,10.10
2023-03-19T23:59:31.507Z,10.10
